Time;durP1;ratioP1;P1;durP2;ratioP2;P2;SDS_P1;SDS_P2;PMS_P1;PMS_P2;Temp;Humidity;BMP_temperature;BMP_pressure;BME280_temperature;BME280_humidity;BME280_pressure;Samples;Min_cycle;Max_cycle;Signal;HPM_P1;HPM_P2
2021/04/07 00:03:11;;;;;;;2.80;1.60;;;;;;;-0.76;66.21;96817.69;10113479;29;20055;-79
2021/04/07 00:08:31;;;;;;;2.80;1.23;;;;;;;-0.85;67.27;96807.22;10100896;29;20101;-79
2021/04/07 00:13:51;;;;;;;3.00;1.10;;;;;;;-0.94;66.76;96814.69;10100643;29;20045;-79
2021/04/07 00:19:10;;;;;;;3.88;1.25;;;;;;;-0.94;66.93;96816.69;10100102;29;20101;-79
2021/04/07 00:24:30;;;;;;;2.67;1.25;;;;;;;-1.03;67.01;96811.69;10087391;29;20052;-79
2021/04/07 00:29:50;;;;;;;5.18;1.40;;;;;;;-1.12;67.48;96809.44;10099448;29;20061;-80
2021/04/07 00:35:10;;;;;;;2.50;1.30;;;;;;;-1.23;67.59;96813.97;10099173;29;20048;-80
2021/04/07 00:40:30;;;;;;;3.80;1.50;;;;;;;-1.31;67.76;96820.66;10099408;29;20076;-79
2021/04/07 00:45:50;;;;;;;2.75;1.38;;;;;;;-1.38;67.98;96813.09;10099194;29;20052;-80
2021/04/07 00:51:09;;;;;;;3.80;1.33;;;;;;;-1.46;67.91;96816.50;10099334;29;20048;-80
2021/04/07 00:56:30;;;;;;;4.40;1.38;;;;;;;-1.48;68.75;96808.09;10098729;29;20052;-79
2021/04/07 01:01:50;;;;;;;2.95;1.40;;;;;;;-1.38;68.19;96813.09;10110988;29;20485;-79
2021/04/07 01:07:11;;;;;;;3.63;1.20;;;;;;;-1.24;68.53;96825.44;10085554;29;20044;-79
2021/04/07 01:12:31;;;;;;;2.50;1.10;;;;;;;-1.06;67.51;96821.75;10098505;29;20048;-79
2021/04/07 01:17:50;;;;;;;3.72;1.08;;;;;;;-0.84;66.84;96828.59;10085379;29;20056;-79
2021/04/07 01:23:10;;;;;;;2.40;1.00;;;;;;;-0.66;65.92;96835.09;10097377;29;20049;-79
2021/04/07 01:28:30;;;;;;;3.08;1.38;;;;;;;-0.51;65.75;96834.41;10097487;29;20073;-79
2021/04/07 01:33:50;;;;;;;3.05;1.10;;;;;;;-0.39;65.13;96847.25;10084600;29;20493;-79
2021/04/07 01:39:09;;;;;;;4.15;1.27;;;;;;;-0.27;64.97;96858.66;10123434;29;20556;-79
2021/04/07 01:44:29;;;;;;;2.58;1.10;;;;;;;-0.08;65.31;96861.09;10123482;29;20049;-80
2021/04/07 01:49:49;;;;;;;2.30;1.10;;;;;;;0.02;64.79;96866.81;10110125;29;20132;-79
2021/04/07 01:55:09;;;;;;;3.72;1.30;;;;;;;-0.05;64.16;96860.75;10110187;29;20044;-79
2021/04/07 02:00:29;;;;;;;3.45;1.00;;;;;;;0.03;64.88;96873.75;10096656;29;20051;-80
2021/04/07 02:05:49;;;;;;;2.50;1.13;;;;;;;0.02;64.55;96880.53;10109724;29;20049;-79
2021/04/07 02:11:08;;;;;;;2.50;1.10;;;;;;;0.05;64.33;96877.41;10101011;29;20041;-79
2021/04/07 02:16:28;;;;;;;2.97;1.00;;;;;;;0.04;63.11;96878.69;10104292;29;20045;-79
2021/04/07 02:22:09;;;;;;;2.53;1.10;;;;;;;0.06;64.04;96884.34;10117100;29;20476;-79
2021/04/07 02:27:29;;;;;;;3.60;1.20;;;;;;;-0.01;62.96;96874.09;10129912;29;20053;-79
2021/04/07 02:32:48;;;;;;;2.65;0.75;;;;;;;-0.08;63.85;96869.34;10103673;29;20046;-79
2021/04/07 02:38:08;;;;;;;4.43;1.00;;;;;;;-0.10;62.99;96883.56;10090171;29;20060;-79
2021/04/07 02:43:28;;;;;;;2.28;0.88;;;;;;;-0.08;63.71;96877.56;10103305;29;20048;-80
2021/04/07 02:48:48;;;;;;;2.17;1.08;;;;;;;-0.09;63.91;96887.06;10090417;29;20103;-80
2021/04/07 02:54:07;;;;;;;1.83;0.85;;;;;;;-0.01;63.22;96887.81;10089551;29;20044;-79
2021/04/07 02:59:27;;;;;;;2.70;1.08;;;;;;;0.02;62.52;96896.97;10115567;29;20041;-79
2021/04/07 03:04:47;;;;;;;2.22;1.00;;;;;;;0.05;63.67;96893.88;10115900;29;20404;-79
2021/04/07 03:10:08;;;;;;;3.35;0.93;;;;;;;0.12;63.84;96909.63;10103138;29;20049;-79
2021/04/07 03:15:28;;;;;;;2.63;0.98;;;;;;;0.16;63.72;96912.75;10088837;29;20041;-79
2021/04/07 03:20:48;;;;;;;2.00;0.75;;;;;;;0.22;63.42;96913.31;10137918;29;20044;-79
2021/04/07 03:26:08;;;;;;;2.65;1.15;;;;;;;0.27;63.19;96912.41;10101701;29;20057;-80
2021/04/07 03:31:27;;;;;;;2.75;0.80;;;;;;;0.24;62.58;96916.25;10114905;29;20389;-79
2021/04/07 03:36:47;;;;;;;2.60;1.00;;;;;;;0.16;62.31;96912.75;10100656;29;20111;-80
2021/04/07 03:42:07;;;;;;;2.28;0.98;;;;;;;0.15;61.78;96913.28;10099176;29;20052;-79
2021/04/07 03:47:27;;;;;;;3.85;0.90;;;;;;;0.22;62.43;96921.56;10098288;29;20044;-79
2021/04/07 03:52:46;;;;;;;2.72;0.80;;;;;;;0.22;62.91;96918.81;10099578;29;20052;-80
2021/04/07 03:58:06;;;;;;;2.75;1.10;;;;;;;0.24;62.07;96927.22;10127160;29;20079;-79
2021/04/07 04:03:27;;;;;;;3.83;1.17;;;;;;;0.34;62.34;96946.66;10126425;29;20424;-79
2021/04/07 04:08:46;;;;;;;1.73;0.90;;;;;;;0.45;62.05;96945.59;10100676;29;20051;-79
2021/04/07 04:14:06;;;;;;;3.08;1.17;;;;;;;0.36;61.85;96951.59;10113237;29;20044;-79
2021/04/07 04:19:26;;;;;;;2.78;1.08;;;;;;;0.34;62.30;96962.41;10098839;29;20408;-79
2021/04/07 04:24:46;;;;;;;3.08;1.17;;;;;;;0.35;63.66;96952.88;10098660;29;20104;-79
2021/04/07 04:30:08;;;;;;;3.22;1.25;;;;;;;0.30;62.75;96953.78;10086160;29;20523;-79
2021/04/07 04:35:27;;;;;;;2.97;1.20;;;;;;;0.28;62.60;96968.03;10082343;29;20428;-79
2021/04/07 04:40:47;;;;;;;1.60;0.80;;;;;;;0.41;62.40;96972.69;10086014;29;20045;-79
2021/04/07 04:46:07;;;;;;;2.63;0.93;;;;;;;0.40;61.87;96982.19;10098498;29;20408;-80
2021/04/07 04:51:27;;;;;;;1.90;0.90;;;;;;;0.40;62.24;96987.69;10112459;29;20045;-80
2021/04/07 04:56:47;;;;;;;3.15;1.08;;;;;;;0.43;62.16;96997.56;10111695;29;20096;-79
2021/04/07 05:02:07;;;;;;;4.38;1.08;;;;;;;0.50;61.64;97002.34;10099207;29;20040;-79
2021/04/07 05:07:27;;;;;;;3.10;1.17;;;;;;;0.57;61.89;97001.63;10101348;29;20056;-79
2021/04/07 05:12:47;;;;;;;4.50;1.60;;;;;;;0.71;61.84;97004.97;10114426;29;20045;-80
2021/04/07 05:18:14;;;;;;;4.95;2.08;;;;;;;0.75;61.39;97008.81;10113323;29;20088;-79
2021/04/07 05:23:34;;;;;;;7.95;3.55;;;;;;;0.71;60.80;97010.47;10138016;29;20052;-79
2021/04/07 05:28:53;;;;;;;4.47;2.38;;;;;;;0.88;59.96;97020.94;10148988;29;20056;-79
2021/04/07 05:34:13;;;;;;;3.83;2.08;;;;;;;1.20;60.87;97034.19;10163942;29;20448;-79
2021/04/07 05:39:34;;;;;;;2.80;1.02;;;;;;;1.57;58.98;97043.72;10150351;29;20044;-79
2021/04/07 05:44:53;;;;;;;3.20;1.30;;;;;;;1.59;59.48;97043.91;10126332;29;20496;-78
2021/04/07 05:50:13;;;;;;;2.63;1.17;;;;;;;1.59;59.54;97060.41;10134495;29;20048;-79
2021/04/07 05:55:34;;;;;;;3.35;1.50;;;;;;;1.80;58.64;97063.69;10106760;29;20051;-79
2021/04/07 06:00:54;;;;;;;4.90;1.83;;;;;;;1.84;58.99;97074.34;10120177;29;20044;-79
2021/04/07 06:06:13;;;;;;;5.80;1.60;;;;;;;3.27;59.11;97079.84;10132861;29;20055;-79
2021/04/07 06:11:33;;;;;;;2.88;1.13;;;;;;;10.00;59.44;97080.09;10106336;29;20044;-80
2021/04/07 06:16:53;;;;;;;4.75;1.83;;;;;;;12.31;58.40;97088.50;10119156;29;20041;-81
2021/04/07 06:22:13;;;;;;;3.33;1.27;;;;;;;21.95;45.46;97095.00;10128594;29;20049;-80
2021/04/07 06:27:32;;;;;;;1.67;0.80;;;;;;;27.29;32.29;97094.06;10125735;29;20496;-79
2021/04/07 06:32:52;;;;;;;3.25;0.90;;;;;;;29.49;23.80;97111.41;10140937;29;20048;-79
2021/04/07 06:38:13;;;;;;;2.33;0.65;;;;;;;31.43;15.43;97093.63;10114685;29;20401;-77
2021/04/07 06:43:33;;;;;;;1.67;0.50;;;;;;;24.70;18.48;97097.03;10140380;29;20053;-79
2021/04/07 06:48:53;;;;;;;3.00;0.80;;;;;;;30.79;15.16;97105.25;10114096;29;20044;-79
2021/04/07 06:54:13;;;;;;;2.72;0.73;;;;;;;37.79;10.13;97110.84;10100712;29;20041;-80
2021/04/07 06:59:35;;;;;;;1.50;0.80;;;;;;;30.33;8.82;97116.31;10112869;29;20068;-80
2021/04/07 07:04:55;;;;;;;2.88;0.85;;;;;;;20.12;12.80;97116.78;10099506;29;20052;-80
2021/04/07 07:10:15;;;;;;;2.03;0.80;;;;;;;15.03;18.21;97116.19;10126422;29;20497;-81
2021/04/07 07:15:35;;;;;;;1.58;0.90;;;;;;;11.92;20.94;97119.38;10113455;29;20052;-81
2021/04/07 07:20:55;;;;;;;3.13;2.28;;;;;;;11.20;23.33;97119.72;10087719;29;20040;-79
2021/04/07 07:26:21;;;;;;;3.00;0.90;;;;;;;8.89;27.53;97129.72;10101492;29;20049;-80
2021/04/07 07:31:41;;;;;;;3.25;0.90;;;;;;;7.42;27.69;97133.09;10102485;29;20048;-79
2021/04/07 07:37:03;;;;;;;2.13;1.00;;;;;;;14.53;29.02;97124.00;10126806;29;20045;-80
2021/04/07 07:42:23;;;;;;;1.58;0.63;;;;;;;26.11;19.04;97162.72;10099593;29;20473;-81
2021/04/07 07:47:45;;;;;;;1.50;0.52;;;;;;;34.05;13.13;97162.38;10099348;29;20500;-80
2021/04/07 07:53:18;;;;;;;2.00;0.40;;;;;;;30.47;9.43;97170.69;10125442;29;20044;-81
2021/04/07 07:58:47;;;;;;;2.15;0.50;;;;;;;32.14;10.64;97177.66;10112415;29;20056;-80
2021/04/07 08:04:07;;;;;;;1.42;0.50;;;;;;;33.94;9.10;97187.38;10098978;29;20052;-80
2021/04/07 08:09:28;;;;;;;4.00;0.50;;;;;;;28.84;9.34;97177.72;10085446;29;20508;-79
2021/04/07 08:14:48;;;;;;;1.20;0.40;;;;;;;24.99;10.95;97179.84;10060383;29;20056;-80
2021/04/07 08:20:08;;;;;;;1.63;0.60;;;;;;;18.03;14.49;97192.16;10059772;29;20286;-83
2021/04/07 08:25:28;;;;;;;1.58;0.60;;;;;;;12.72;17.13;97196.91;10059695;29;20409;-81
2021/04/07 08:30:49;;;;;;;2.00;0.70;;;;;;;11.84;19.20;97197.25;10072318;29;20184;-81
2021/04/07 08:36:08;;;;;;;1.95;0.60;;;;;;;10.01;21.02;97201.44;10100935;29;20055;-79
2021/04/07 08:41:28;;;;;;;1.70;0.70;;;;;;;8.38;25.63;97211.91;10344293;23;20086;-81
2021/04/07 08:46:53;;;;;;;1.85;0.73;;;;;;;7.18;25.84;97223.75;10304050;23;20060;-86
2021/04/07 08:52:19;;;;;;;2.45;0.70;;;;;;;7.54;30.17;97233.97;10143574;29;20494;-81
2021/04/07 09:03:34;;;;;;;1.65;0.57;;;;;;;17.55;23.11;97236.53;11235817;23;20059;-83
2021/04/07 09:08:55;;;;;;;1.67;0.80;;;;;;;18.02;22.24;97247.19;10112891;29;20044;-80
2021/04/07 09:14:15;;;;;;;1.95;1.00;;;;;;;15.89;22.36;97248.94;10137506;29;20068;-80
2021/04/07 09:19:36;;;;;;;1.13;0.70;;;;;;;14.90;24.76;97254.75;10139789;29;20085;-81
2021/04/07 09:24:56;;;;;;;1.80;0.77;;;;;;;15.27;25.20;97257.03;10379521;23;20063;-80
2021/04/07 09:30:17;;;;;;;3.75;0.82;;;;;;;14.26;25.59;97265.28;10277895;23;20118;-81
2021/04/07 09:35:38;;;;;;;2.25;0.98;;;;;;;14.20;26.07;97267.81;10383455;23;20404;-80
2021/04/07 09:41:29;;;;;;;1.77;0.75;;;;;;;12.74;26.63;97266.28;10474927;23;20088;-81
2021/04/07 09:47:16;;;;;;;2.45;0.95;;;;;;;10.90;28.93;97266.72;10153612;29;20075;-81
2021/04/07 09:52:40;;;;;;;1.45;0.65;;;;;;;13.50;29.61;97274.31;10010021;29;20057;-81
2021/04/07 09:58:01;;;;;;;2.30;0.63;;;;;;;11.53;29.37;97275.19;10011983;29;20079;-79
2021/04/07 10:03:23;;;;;;;1.98;0.70;;;;;;;13.71;30.08;97276.78;10021068;29;20049;-84
2021/04/07 10:08:43;;;;;;;2.72;0.73;;;;;;;21.63;25.43;97282.72;10035491;29;20053;-82
2021/04/07 10:14:03;;;;;;;2.97;1.00;;;;;;;22.97;21.89;97281.13;10020590;29;20045;-77
2021/04/07 10:19:28;;;;;;;2.65;0.60;;;;;;;25.76;19.26;97279.25;10031455;29;20406;-78
2021/04/07 10:24:53;;;;;;;2.08;0.75;;;;;;;27.50;16.25;97278.00;10018511;29;20053;-83
2021/04/07 10:30:20;;;;;;;3.35;0.57;;;;;;;33.91;12.08;97281.56;10017299;29;20494;-79
2021/04/07 10:35:40;;;;;;;2.92;1.20;;;;;;;29.33;11.22;97287.66;10026099;29;20049;-81
2021/04/07 10:41:03;;;;;;;2.00;0.60;;;;;;;24.24;13.35;97285.81;10037888;29;20045;-80
2021/04/07 10:46:30;;;;;;;4.07;0.50;;;;;;;25.18;14.70;97292.72;10025598;29;20049;-79
2021/04/07 10:52:05;;;;;;;1.20;0.55;;;;;;;24.94;13.72;97287.63;10036496;29;20498;-79
2021/04/07 10:57:33;;;;;;;1.63;0.55;;;;;;;23.05;13.08;97291.84;10040721;29;20121;-79
2021/04/07 11:02:53;;;;;;;3.55;0.50;;;;;;;18.53;14.98;97303.13;10046749;29;20114;-78
2021/04/07 11:08:14;;;;;;;2.10;0.60;;;;;;;18.39;16.77;97294.22;10020454;29;20049;-79
2021/04/07 11:13:34;;;;;;;2.13;0.57;;;;;;;18.35;17.19;97293.38;10033687;29;20042;-80
2021/04/07 11:18:54;;;;;;;2.67;0.63;;;;;;;16.41;18.20;97295.31;10031275;29;20106;-80
2021/04/07 11:24:14;;;;;;;2.92;0.70;;;;;;;16.16;19.75;97304.19;10031193;29;20493;-80
2021/04/07 11:29:37;;;;;;;5.40;0.63;;;;;;;16.26;20.38;97308.13;10017909;29;20049;-80
2021/04/07 11:35:13;;;;;;;;;;;;;;;15.65;20.47;97316.25;10045289;29;20033;-79
2021/04/07 11:45:55;;;;;;;3.03;0.63;;;;;;;14.45;20.24;97305.44;10032110;29;20049;-79
2021/04/07 11:51:15;;;;;;;2.22;0.60;;;;;;;13.75;20.91;97301.47;10021577;29;20057;-80
2021/04/07 11:56:44;;;;;;;5.15;1.08;;;;;;;12.66;21.55;97317.03;10034937;29;20038;-79
2021/04/07 12:02:05;;;;;;;3.42;1.25;;;;;;;12.42;22.47;97316.47;10035039;29;20050;-80
2021/04/07 12:07:25;;;;;;;3.08;0.70;;;;;;;12.15;22.35;97319.91;10022631;29;20413;-79
2021/04/07 12:12:45;;;;;;;3.92;0.40;;;;;;;12.91;23.12;97316.19;9999606;29;20053;-80
2021/04/07 12:18:06;;;;;;;1.92;0.38;;;;;;;13.48;22.22;97321.16;10020101;29;20046;-80
2021/04/07 12:23:26;;;;;;;2.38;0.35;;;;;;;12.64;22.26;97330.91;10024628;29;20049;-79
2021/04/07 12:28:48;;;;;;;2.15;0.30;;;;;;;11.82;22.27;97313.88;10037599;29;20110;-79
2021/04/07 12:34:08;;;;;;;1.90;0.40;;;;;;;12.43;22.84;97314.38;10050559;29;20435;-79
2021/04/07 12:39:29;;;;;;;3.08;0.50;;;;;;;12.45;21.63;97303.28;10049041;29;20435;-79
2021/04/07 12:44:49;;;;;;;1.73;0.30;;;;;;;12.30;22.02;97296.22;10061902;29;20056;-79
2021/04/07 12:50:09;;;;;;;2.88;0.40;;;;;;;12.54;22.09;97305.16;10036898;29;20061;-79
2021/04/07 12:56:02;;;;;;;1.92;0.52;;;;;;;12.63;22.14;97290.25;10048250;29;20109;-79
2021/04/07 13:01:42;;;;;;;3.17;0.50;;;;;;;11.31;22.68;97280.25;10051940;29;20500;-79
2021/04/07 13:07:02;;;;;;;3.33;0.47;;;;;;;9.82;26.50;97341.03;10036278;29;20042;-79
2021/04/07 13:12:22;;;;;;;0.90;0.30;;;;;;;8.55;26.77;97325.72;10034904;29;20172;-79
2021/04/07 13:17:42;;;;;;;1.98;0.57;;;;;;;9.63;26.54;97319.63;10033769;29;20046;-78
2021/04/07 13:23:02;;;;;;;2.38;0.65;;;;;;;9.85;26.74;97330.78;10034077;29;20081;-79
2021/04/07 13:28:22;;;;;;;1.42;0.60;;;;;;;10.36;26.24;97322.81;10021139;29;20093;-79
2021/04/07 13:33:46;;;;;;;6.93;0.45;;;;;;;10.40;25.93;97318.19;10046592;29;20057;-79
2021/04/07 13:39:21;;;;;;;2.97;0.88;;;;;;;10.79;25.83;97323.31;10046485;29;20049;-79
2021/04/07 13:44:44;;;;;;;2.45;0.82;;;;;;;10.76;25.63;97307.78;10056590;29;20056;-79
2021/04/07 13:50:06;;;;;;;1.63;0.57;;;;;;;11.32;24.46;97309.66;10020201;29;20054;-79
2021/04/07 13:55:30;;;;;;;2.33;0.57;;;;;;;10.90;23.83;97322.56;10033790;29;20049;-79
2021/04/07 14:00:52;;;;;;;2.08;0.65;;;;;;;9.87;23.20;97336.47;10046523;29;20053;-79
2021/04/07 14:06:13;;;;;;;1.58;0.45;;;;;;;9.75;24.01;97331.59;10035859;29;20045;-79
2021/04/07 14:11:32;;;;;;;1.98;0.68;;;;;;;10.07;23.32;97320.28;10052884;29;20053;-79
2021/04/07 14:16:54;;;;;;;3.28;0.50;;;;;;;9.39;23.80;97329.94;10052303;29;20048;-79
2021/04/07 14:22:14;;;;;;;2.60;0.80;;;;;;;8.97;24.24;97341.06;10026828;29;20041;-79
2021/04/07 14:27:34;;;;;;;4.65;0.90;;;;;;;9.05;24.66;97352.72;10052716;29;20061;-78
2021/04/07 14:32:56;;;;;;;2.33;0.80;;;;;;;8.72;24.69;97328.28;10052833;29;20050;-79
2021/04/07 14:38:17;;;;;;;2.33;0.57;;;;;;;8.06;25.06;97346.63;10052109;29;20082;-79
2021/04/07 14:43:37;;;;;;;4.45;0.63;;;;;;;8.27;25.15;97341.88;10051719;29;20050;-79
2021/04/07 14:48:58;;;;;;;1.13;0.57;;;;;;;8.46;25.07;97343.19;10064078;29;20398;-79
2021/04/07 14:59:40;;;;;;;2.08;0.70;;;;;;;7.83;25.35;97333.19;10090072;29;20100;-79
2021/04/07 15:05:00;;;;;;;2.20;0.88;;;;;;;8.29;25.71;97342.03;10066915;29;20049;-79
2021/04/07 15:10:21;;;;;;;2.65;0.80;;;;;;;8.80;24.54;97326.06;10076877;29;20052;-79
2021/04/07 15:15:40;;;;;;;1.75;0.60;;;;;;;8.46;24.73;97334.84;10063206;29;20049;-79
2021/04/07 15:21:01;;;;;;;1.40;0.60;;;;;;;8.08;25.17;97333.59;10062935;29;20446;-78
2021/04/07 15:26:24;;;;;;;1.63;0.40;;;;;;;8.13;25.23;97340.19;10063243;29;20045;-80
2021/04/07 15:31:44;;;;;;;1.83;0.60;;;;;;;8.01;25.51;97332.44;10076478;29;20485;-79
2021/04/07 15:37:04;;;;;;;1.88;0.50;;;;;;;7.96;26.25;97358.47;10063166;29;20045;-76
2021/04/07 15:42:23;;;;;;;0.88;0.32;;;;;;;7.48;27.75;97380.69;10076317;29;20416;-77
2021/04/07 15:47:43;;;;;;;1.80;0.50;;;;;;;7.22;30.81;97373.19;10062335;29;20053;-76
2021/04/07 15:53:14;;;;;;;1.63;0.40;;;;;;;7.33;29.38;97375.41;10100573;29;20140;-80
2021/04/07 15:58:34;;;;;;;1.88;0.43;;;;;;;7.15;31.73;97375.53;10454984;23;20119;-80
2021/04/07 16:03:55;;;;;;;0.82;0.45;;;;;;;6.26;34.40;97377.06;10318203;23;20052;-83
2021/04/07 16:09:15;;;;;;;1.83;0.50;;;;;;;5.51;37.84;97377.38;10438977;23;20125;-81
2021/04/07 16:14:52;;;;;;;2.17;0.60;;;;;;;5.03;40.03;97387.97;10344325;23;20500;-82
2021/04/07 16:20:28;;;;;;;3.10;0.60;;;;;;;4.78;37.69;97388.72;11832161;23;20127;-79
2021/04/07 16:25:48;;;;;;;1.00;0.40;;;;;;;4.80;40.61;97386.09;10157909;29;20068;-79
2021/04/07 16:31:08;;;;;;;1.80;0.50;;;;;;;5.37;39.14;97407.41;10164232;29;20059;-78
2021/04/07 16:36:39;;;;;;;1.35;0.30;;;;;;;5.67;39.26;97397.31;10273206;23;20031;31
2021/04/07 16:41:59;;;;;;;1.95;0.30;;;;;;;5.38;38.47;97397.78;10290371;23;20800;-86
2021/04/07 16:53:23;;;;;;;1.27;0.30;;;;;;;4.81;39.12;97400.66;11537856;23;20027;-83
2021/04/07 16:58:44;;;;;;;1.70;0.70;;;;;;;4.65;38.65;97402.09;10132938;29;20049;-81
2021/04/07 17:04:04;;;;;;;1.13;0.35;;;;;;;4.67;39.72;97405.75;10148979;23;20041;-85
2021/04/07 17:09:25;;;;;;;0.60;0.30;;;;;;;4.55;41.01;97407.50;10720618;23;20104;-82
2021/04/07 17:14:47;;;;;;;0.90;0.40;;;;;;;4.56;40.65;97422.78;10168935;29;20040;-79
2021/04/07 17:20:09;;;;;;;1.40;0.40;;;;;;;4.50;40.84;97413.97;10157350;29;20055;-82
2021/04/07 17:31:21;;;;;;;1.27;0.50;;;;;;;4.52;41.83;97417.63;10494064;23;20096;-85
2021/04/07 17:36:41;;;;;;;1.10;0.50;;;;;;;4.29;43.24;97417.75;10194027;29;20028;-86
2021/04/07 17:42:05;;;;;;;1.38;0.52;;;;;;;4.16;42.44;97414.53;10163754;29;20048;-83
2021/04/07 17:47:26;;;;;;;0.88;0.40;;;;;;;4.18;41.88;97423.72;10183813;29;20048;-87
2021/04/07 17:58:38;;;;;;;1.45;0.60;;;;;;;3.96;43.10;97419.03;11151479;23;20116;-89
2021/04/07 18:03:58;;;;;;;1.23;0.50;;;;;;;3.77;43.87;97438.03;10141051;29;20041;-79
2021/04/07 18:09:17;;;;;;;1.75;0.40;;;;;;;3.54;44.29;97422.25;10123357;29;20044;-80
2021/04/07 18:14:38;;;;;;;2.45;0.57;;;;;;;3.43;44.70;97441.97;10098383;29;20048;-78
2021/04/07 18:19:59;;;;;;;1.02;0.50;;;;;;;3.39;45.46;97447.84;10125471;29;20052;-80
2021/04/07 18:25:19;;;;;;;1.75;0.50;;;;;;;3.40;44.35;97438.28;10104281;29;20381;-78
2021/04/07 18:30:43;;;;;;;2.90;0.55;;;;;;;3.36;46.17;97459.25;10105888;29;20044;-82
2021/04/07 18:36:03;;;;;;;1.98;0.75;;;;;;;3.39;46.62;97458.16;10110546;29;20045;-79
2021/04/07 18:41:22;;;;;;;1.65;0.93;;;;;;;3.32;48.29;97461.66;10109415;29;20044;-79
2021/04/07 18:46:42;;;;;;;2.35;0.90;;;;;;;3.40;46.10;97473.44;10108801;29;20129;-75
2021/04/07 18:52:02;;;;;;;2.08;0.63;;;;;;;3.42;47.54;97479.13;10108764;29;20071;-79
2021/04/07 18:57:22;;;;;;;1.67;0.95;;;;;;;3.32;47.93;97480.97;10090278;29;20134;-78
2021/04/07 19:02:42;;;;;;;2.15;0.90;;;;;;;3.30;47.79;97480.78;10102275;29;20057;-79
2021/04/07 19:08:04;;;;;;;2.15;1.00;;;;;;;3.40;47.30;97487.22;10120986;29;20048;-82
2021/04/07 19:13:24;;;;;;;2.05;0.82;;;;;;;3.41;47.58;97488.69;10106023;29;20044;-80
2021/04/07 19:18:43;;;;;;;1.33;0.85;;;;;;;3.35;48.83;97497.13;10130370;29;20053;-87
2021/04/07 19:24:05;;;;;;;1.55;0.85;;;;;;;3.29;48.32;97498.63;10096981;29;20055;-82
2021/04/07 19:29:24;;;;;;;2.75;0.95;;;;;;;3.28;50.96;97492.38;10139650;24;20061;-78
2021/04/07 19:34:45;;;;;;;3.72;1.20;;;;;;;3.15;49.15;97496.03;10206276;23;20063;-80
2021/04/07 19:40:06;;;;;;;2.15;1.20;;;;;;;3.01;50.83;97497.50;10145759;29;20033;-86
2021/04/07 19:45:26;;;;;;;3.90;1.23;;;;;;;2.94;50.35;97492.69;10147158;29;20033;-84
2021/04/07 19:57:26;;;;;;;4.28;1.45;;;;;;;2.88;51.50;97500.41;10111281;29;20071;-82
2021/04/07 20:02:46;;;;;;;3.45;1.05;;;;;;;2.88;53.65;97494.88;10901002;23;20082;-87
2021/04/07 20:08:09;;;;;;;3.22;1.30;;;;;;;2.84;54.56;97489.00;10054604;29;20040;-81
2021/04/07 20:13:29;;;;;;;4.03;1.40;;;;;;;2.72;52.86;97477.59;10573102;23;20055;-87
2021/04/07 20:18:49;;;;;;;2.13;1.10;;;;;;;2.72;54.92;97477.59;11358830;23;20036;-79
2021/04/07 20:24:09;;;;;;;2.47;1.50;;;;;;;2.50;56.59;97472.75;10116167;23;20053;-80
2021/04/07 20:29:29;;;;;;;4.00;1.67;;;;;;;2.57;57.17;97464.50;10066691;29;20049;-80
2021/04/07 20:40:41;;;;;;;2.92;1.33;;;;;;;2.35;56.22;97467.22;11082524;23;20083;-81
2021/04/07 20:46:04;;;;;;;3.50;1.33;;;;;;;2.30;65.14;97477.09;10158241;29;20034;-80
2021/04/07 20:51:24;;;;;;;2.50;1.55;;;;;;;2.00;65.03;97467.44;10190221;29;20048;-86
2021/04/07 20:56:53;;;;;;;3.88;1.60;;;;;;;1.79;64.66;97477.78;10159881;29;20044;-83
2021/04/07 21:02:13;;;;;;;2.78;1.80;;;;;;;1.58;66.72;97477.84;10165204;29;20059;-83
2021/04/07 21:07:37;;;;;;;3.58;1.60;;;;;;;1.41;70.14;97480.28;10117161;29;20055;-80
2021/04/07 21:12:56;;;;;;;3.00;1.48;;;;;;;1.33;68.36;97469.22;10088000;29;20052;-79
2021/04/07 21:18:16;;;;;;;3.47;1.80;;;;;;;1.31;67.77;97482.03;10111592;29;20493;-78
2021/04/07 21:23:40;;;;;;;2.90;1.58;;;;;;;1.28;67.85;97488.63;10088625;29;20045;-79
2021/04/07 21:29:00;;;;;;;3.03;1.70;;;;;;;1.38;68.00;97487.59;10126269;29;20051;-78
2021/04/07 21:34:20;;;;;;;4.22;1.65;;;;;;;1.49;67.83;97474.84;10112842;29;20048;-79
2021/04/07 21:39:41;;;;;;;2.70;1.60;;;;;;;1.54;67.78;97487.69;10112520;29;20068;-79
2021/04/07 21:45:01;;;;;;;2.55;1.60;;;;;;;1.44;67.46;97479.94;10112329;29;20112;-79
2021/04/07 21:50:23;;;;;;;2.85;1.63;;;;;;;1.30;67.80;97480.56;10098601;29;20045;-78
2021/04/07 21:55:43;;;;;;;1.90;1.10;;;;;;;1.30;67.00;97510.81;10111446;29;20048;-80
2021/04/07 22:01:04;;;;;;;2.55;1.60;;;;;;;1.33;68.36;97507.00;10085748;29;20409;-79
2021/04/07 22:06:24;;;;;;;2.17;1.48;;;;;;;1.41;68.22;97514.03;10098536;29;20404;-79
2021/04/07 22:11:43;;;;;;;2.17;1.67;;;;;;;1.53;67.62;97511.72;10110994;29;20519;-79
2021/04/07 22:17:03;;;;;;;3.20;1.25;;;;;;;1.65;66.36;97514.94;10096648;29;20052;-79
2021/04/07 22:22:25;;;;;;;2.47;1.20;;;;;;;1.71;66.16;97523.78;10096862;29;20045;-78
2021/04/07 22:27:46;;;;;;;2.97;1.30;;;;;;;1.69;65.90;97521.56;10113988;29;20134;-79
2021/04/07 22:33:06;;;;;;;3.00;1.25;;;;;;;1.71;66.77;97527.25;10106113;29;20041;-78
2021/04/07 22:38:26;;;;;;;2.70;1.25;;;;;;;1.77;66.58;97538.13;10118466;29;20060;-80
2021/04/07 22:43:46;;;;;;;3.08;1.67;;;;;;;1.77;66.08;97535.38;10119126;29;20055;-79
2021/04/07 22:49:14;;;;;;;2.03;1.13;;;;;;;1.71;66.95;97541.03;10119480;29;20056;-79
2021/04/07 22:54:33;;;;;;;2.92;1.40;;;;;;;1.74;66.18;97544.72;10130262;29;20052;-79
2021/04/07 22:59:53;;;;;;;2.22;1.13;;;;;;;1.72;65.95;97558.28;10104836;29;20045;-79
2021/04/07 23:05:19;;;;;;;3.53;1.20;;;;;;;1.70;66.42;97555.31;10103547;29;20526;-79
2021/04/07 23:10:39;;;;;;;2.33;1.10;;;;;;;1.68;66.46;97574.41;10103855;29;20048;-79
2021/04/07 23:15:59;;;;;;;3.17;1.30;;;;;;;1.70;66.34;97583.59;10102898;29;20488;-78
2021/04/07 23:21:19;;;;;;;1.95;1.20;;;;;;;1.71;66.67;97582.31;10102692;29;20099;-78
2021/04/07 23:26:39;;;;;;;1.45;0.98;;;;;;;1.67;66.10;97583.94;10102183;29;20052;-78
2021/04/07 23:31:59;;;;;;;3.13;1.10;;;;;;;1.68;66.16;97585.41;10101899;29;20052;-79
2021/04/07 23:37:19;;;;;;;2.88;1.33;;;;;;;1.71;66.17;97590.56;10101883;29;20104;-79
2021/04/07 23:42:39;;;;;;;4.07;1.30;;;;;;;1.72;66.63;97591.28;10114538;29;20067;-78
2021/04/07 23:47:59;;;;;;;2.95;1.08;;;;;;;1.69;66.29;97598.63;10101420;29;20059;-79
2021/04/07 23:53:22;;;;;;;2.95;1.00;;;;;;;1.71;66.52;97589.81;10102176;29;20056;-78
2021/04/07 23:58:42;;;;;;;1.90;1.00;;;;;;;1.73;66.33;97593.50;10100945;29;20495;-79
